sensor_id;sensor_type;location;lat;lon;timestamp;pressure;altitude;pressure_sealevel;temperature;humidity
36242;BME280;22283;42.748;12.732;2022-09-28T00:01:32;97001.69;;;12.89;100.00
36242;BME280;22283;42.748;12.732;2022-09-28T00:06:32;96991.16;;;12.79;100.00
36242;BME280;22283;42.748;12.732;2022-09-28T00:11:33;96988.22;;;12.65;100.00
36242;BME280;22283;42.748;12.732;2022-09-28T00:16:36;97003.53;;;12.53;100.00
36242;BME280;22283;42.748;12.732;2022-09-28T00:21:39;97002.38;;;12.38;100.00
36242;BME280;22283;42.748;12.732;2022-09-28T00:26:49;97008.19;;;12.23;100.00
36242;BME280;22283;42.748;12.732;2022-09-28T00:31:51;97013.13;;;12.18;100.00
36242;BME280;22283;42.748;12.732;2022-09-28T00:36:53;96995.00;;;12.14;100.00
36242;BME280;22283;42.748;12.732;2022-09-28T00:41:54;96985.53;;;12.11;100.00
36242;BME280;22283;42.748;12.732;2022-09-28T00:52:03;96976.63;;;12.12;100.00
36242;BME280;22283;42.748;12.732;2022-09-28T00:57:05;96984.63;;;12.02;100.00
36242;BME280;22283;42.748;12.732;2022-09-28T01:02:06;96980.06;;;11.95;100.00
36242;BME280;22283;42.748;12.732;2022-09-28T01:07:07;96972.72;;;11.89;100.00
36242;BME280;22283;42.748;12.732;2022-09-28T01:12:08;96963.25;;;11.86;100.00
36242;BME280;22283;42.748;12.732;2022-09-28T01:17:14;96961.28;;;11.78;100.00
36242;BME280;22283;42.748;12.732;2022-09-28T01:28:17;96943.84;;;11.58;100.00
36242;BME280;22283;42.748;12.732;2022-09-28T01:33:24;96945.38;;;11.61;100.00
36242;BME280;22283;42.748;12.732;2022-09-28T01:38:38;96938.72;;;11.47;100.00
36242;BME280;22283;42.748;12.732;2022-09-28T01:43:45;96940.56;;;11.46;100.00
36242;BME280;22283;42.748;12.732;2022-09-28T01:48:54;96937.91;;;11.46;100.00
36242;BME280;22283;42.748;12.732;2022-09-28T01:54:00;96928.69;;;11.50;100.00
36242;BME280;22283;42.748;12.732;2022-09-28T01:59:14;96926.75;;;11.43;100.00
36242;BME280;22283;42.748;12.732;2022-09-28T02:04:20;96929.69;;;11.40;100.00
36242;BME280;22283;42.748;12.732;2022-09-28T02:09:46;96928.09;;;11.29;100.00
36242;BME280;22283;42.748;12.732;2022-09-28T02:14:51;96920.47;;;11.16;100.00
36242;BME280;22283;42.748;12.732;2022-09-28T02:19:55;96920.63;;;11.15;100.00
36242;BME280;22283;42.748;12.732;2022-09-28T02:24:58;96927.03;;;11.12;100.00
36242;BME280;22283;42.748;12.732;2022-09-28T02:30:04;96934.69;;;11.15;100.00
36242;BME280;22283;42.748;12.732;2022-09-28T02:35:11;96940.25;;;11.22;100.00
36242;BME280;22283;42.748;12.732;2022-09-28T02:40:17;96920.63;;;11.15;100.00
36242;BME280;22283;42.748;12.732;2022-09-28T02:45:44;96925.53;;;11.10;100.00
36242;BME280;22283;42.748;12.732;2022-09-28T03:06:21;96943.34;;;11.07;100.00
36242;BME280;22283;42.748;12.732;2022-09-28T03:11:29;96926.34;;;11.10;100.00
36242;BME280;22283;42.748;12.732;2022-09-28T03:16:32;96923.53;;;11.21;100.00
36242;BME280;22283;42.748;12.732;2022-09-28T03:21:33;96926.31;;;11.20;100.00
36242;BME280;22283;42.748;12.732;2022-09-28T03:26:34;96920.44;;;11.26;100.00
36242;BME280;22283;42.748;12.732;2022-09-28T03:31:35;96924.78;;;11.17;100.00
36242;BME280;22283;42.748;12.732;2022-09-28T03:36:36;96933.03;;;11.14;100.00
36242;BME280;22283;42.748;12.732;2022-09-28T03:41:36;96925.19;;;11.22;100.00
36242;BME280;22283;42.748;12.732;2022-09-28T03:46:38;96924.19;;;11.23;100.00
36242;BME280;22283;42.748;12.732;2022-09-28T03:51:41;96923.22;;;11.24;100.00
36242;BME280;22283;42.748;12.732;2022-09-28T03:56:42;96916.81;;;11.27;100.00
36242;BME280;22283;42.748;12.732;2022-09-28T04:01:43;96920.69;;;11.32;100.00
36242;BME280;22283;42.748;12.732;2022-09-28T04:06:43;96929.13;;;11.46;100.00
36242;BME280;22283;42.748;12.732;2022-09-28T04:11:46;96932.25;;;11.59;100.00
36242;BME280;22283;42.748;12.732;2022-09-28T04:16:46;96926.97;;;11.59;100.00
36242;BME280;22283;42.748;12.732;2022-09-28T04:21:49;96921.94;;;11.56;100.00
36242;BME280;22283;42.748;12.732;2022-09-28T04:26:51;96916.84;;;11.72;100.00
36242;BME280;22283;42.748;12.732;2022-09-28T04:31:52;96912.69;;;11.70;100.00
36242;BME280;22283;42.748;12.732;2022-09-28T04:36:59;96912.44;;;11.63;100.00
36242;BME280;22283;42.748;12.732;2022-09-28T04:42:00;96928.53;;;11.52;100.00
36242;BME280;22283;42.748;12.732;2022-09-28T04:47:02;96928.03;;;11.39;100.00
36242;BME280;22283;42.748;12.732;2022-09-28T04:52:04;96927.25;;;11.28;100.00
36242;BME280;22283;42.748;12.732;2022-09-28T04:57:05;96934.78;;;11.33;100.00
36242;BME280;22283;42.748;12.732;2022-09-28T05:02:06;96931.41;;;11.31;100.00
36242;BME280;22283;42.748;12.732;2022-09-28T05:07:25;96922.28;;;11.43;100.00
36242;BME280;22283;42.748;12.732;2022-09-28T05:12:26;96930.69;;;11.66;100.00
36242;BME280;22283;42.748;12.732;2022-09-28T05:17:27;96932.66;;;11.64;100.00
36242;BME280;22283;42.748;12.732;2022-09-28T05:22:41;96923.13;;;11.71;100.00
36242;BME280;22283;42.748;12.732;2022-09-28T05:27:43;96923.53;;;11.76;100.00
36242;BME280;22283;42.748;12.732;2022-09-28T05:32:57;96934.63;;;11.90;100.00
36242;BME280;22283;42.748;12.732;2022-09-28T05:38:11;96942.69;;;12.16;100.00
36242;BME280;22283;42.748;12.732;2022-09-28T05:43:12;96933.63;;;12.62;100.00
36242;BME280;22283;42.748;12.732;2022-09-28T05:48:12;96927.34;;;13.41;100.00
36242;BME280;22283;42.748;12.732;2022-09-28T05:53:14;96919.09;;;14.11;100.00
36242;BME280;22283;42.748;12.732;2022-09-28T05:58:15;96923.50;;;14.69;100.00
36242;BME280;22283;42.748;12.732;2022-09-28T06:03:16;96930.72;;;15.16;98.36
36242;BME280;22283;42.748;12.732;2022-09-28T06:08:18;96913.84;;;15.88;95.04
36242;BME280;22283;42.748;12.732;2022-09-28T06:13:24;96916.03;;;16.07;92.07
36242;BME280;22283;42.748;12.732;2022-09-28T06:18:25;96916.06;;;16.30;90.04
36242;BME280;22283;42.748;12.732;2022-09-28T06:23:47;96916.72;;;16.09;90.34
36242;BME280;22283;42.748;12.732;2022-09-28T06:28:48;96925.34;;;16.11;92.03
36242;BME280;22283;42.748;12.732;2022-09-28T06:33:49;96923.31;;;15.90;93.43
36242;BME280;22283;42.748;12.732;2022-09-28T06:38:51;96929.75;;;16.04;93.02
36242;BME280;22283;42.748;12.732;2022-09-28T06:43:52;96924.53;;;16.11;91.92
36242;BME280;22283;42.748;12.732;2022-09-28T06:49:11;96911.50;;;16.16;91.26
36242;BME280;22283;42.748;12.732;2022-09-28T06:54:31;96916.19;;;16.37;92.09
36242;BME280;22283;42.748;12.732;2022-09-28T07:00:02;96911.19;;;16.57;88.97
36242;BME280;22283;42.748;12.732;2022-09-28T07:05:03;96911.56;;;16.77;86.78
36242;BME280;22283;42.748;12.732;2022-09-28T07:10:26;96921.66;;;17.04;83.58
36242;BME280;22283;42.748;12.732;2022-09-28T07:15:54;96914.66;;;17.33;83.85
36242;BME280;22283;42.748;12.732;2022-09-28T07:20:55;96906.75;;;17.54;79.03
36242;BME280;22283;42.748;12.732;2022-09-28T07:25:56;96901.75;;;17.66;78.01
36242;BME280;22283;42.748;12.732;2022-09-28T07:31:20;96914.56;;;17.85;77.28
36242;BME280;22283;42.748;12.732;2022-09-28T07:36:31;96915.00;;;18.25;74.06
36242;BME280;22283;42.748;12.732;2022-09-28T07:41:34;96923.13;;;18.53;71.05
36242;BME280;22283;42.748;12.732;2022-09-28T07:46:39;96923.66;;;18.85;70.92
36242;BME280;22283;42.748;12.732;2022-09-28T07:51:47;96930.13;;;18.97;70.63
36242;BME280;22283;42.748;12.732;2022-09-28T07:56:56;96925.50;;;19.12;69.39
36242;BME280;22283;42.748;12.732;2022-09-28T08:02:23;96927.00;;;19.22;67.43
36242;BME280;22283;42.748;12.732;2022-09-28T08:07:24;96922.91;;;19.26;65.49
36242;BME280;22283;42.748;12.732;2022-09-28T08:12:33;96921.19;;;19.46;66.75
36242;BME280;22283;42.748;12.732;2022-09-28T08:18:00;96921.66;;;19.98;64.81
36242;BME280;22283;42.748;12.732;2022-09-28T08:23:06;96926.84;;;20.06;64.12
36242;BME280;22283;42.748;12.732;2022-09-28T08:28:09;96913.63;;;20.04;62.71
36242;BME280;22283;42.748;12.732;2022-09-28T08:33:19;96930.09;;;19.95;62.05
36242;BME280;22283;42.748;12.732;2022-09-28T08:38:39;96915.91;;;20.07;62.55
36242;BME280;22283;42.748;12.732;2022-09-28T08:54:36;96947.72;;;21.05;57.65
36242;BME280;22283;42.748;12.732;2022-09-28T08:59:53;96947.13;;;21.03;57.86
36242;BME280;22283;42.748;12.732;2022-09-28T09:05:06;96946.66;;;20.86;57.86
36242;BME280;22283;42.748;12.732;2022-09-28T09:10:48;96935.94;;;21.12;57.38
36242;BME280;22283;42.748;12.732;2022-09-28T09:21:27;96949.13;;;21.74;56.27
36242;BME280;22283;42.748;12.732;2022-09-28T09:26:36;96943.72;;;21.74;54.58
36242;BME280;22283;42.748;12.732;2022-09-28T09:37:31;96940.59;;;22.35;53.77
36242;BME280;22283;42.748;12.732;2022-09-28T09:48:51;96953.00;;;22.74;53.69
36242;BME280;22283;42.748;12.732;2022-09-28T09:54:01;96951.25;;;22.55;54.11
36242;BME280;22283;42.748;12.732;2022-09-28T09:59:10;96955.69;;;22.43;54.84
36242;BME280;22283;42.748;12.732;2022-09-28T10:04:39;96964.72;;;22.17;54.23
36242;BME280;22283;42.748;12.732;2022-09-28T10:09:54;96964.91;;;22.08;56.33
36242;BME280;22283;42.748;12.732;2022-09-28T10:15:14;96970.00;;;22.37;56.08
36242;BME280;22283;42.748;12.732;2022-09-28T10:20:30;96960.84;;;22.44;53.37
36242;BME280;22283;42.748;12.732;2022-09-28T10:25:42;96961.31;;;22.41;53.80
36242;BME280;22283;42.748;12.732;2022-09-28T10:30:45;96957.25;;;22.19;55.02
36242;BME280;22283;42.748;12.732;2022-09-28T10:35:47;96966.31;;;22.31;53.87
36242;BME280;22283;42.748;12.732;2022-09-28T10:40:49;96955.91;;;22.41;53.45
36242;BME280;22283;42.748;12.732;2022-09-28T10:46:09;96966.97;;;22.26;54.77
36242;BME280;22283;42.748;12.732;2022-09-28T10:51:11;96947.72;;;22.23;55.71
36242;BME280;22283;42.748;12.732;2022-09-28T10:56:21;96938.63;;;22.10;54.15
36242;BME280;22283;42.748;12.732;2022-09-28T11:01:32;96927.69;;;21.99;53.36
36242;BME280;22283;42.748;12.732;2022-09-28T11:06:37;96916.13;;;21.85;55.07
36242;BME280;22283;42.748;12.732;2022-09-28T11:11:41;96920.91;;;21.90;53.41
36242;BME280;22283;42.748;12.732;2022-09-28T11:16:44;96913.44;;;21.85;53.39
36242;BME280;22283;42.748;12.732;2022-09-28T11:21:46;96927.09;;;21.90;55.11
36242;BME280;22283;42.748;12.732;2022-09-28T11:26:53;96915.03;;;21.99;53.05
36242;BME280;22283;42.748;12.732;2022-09-28T11:32:05;96911.72;;;21.97;54.24
36242;BME280;22283;42.748;12.732;2022-09-28T11:43:34;96901.25;;;21.82;55.84
36242;BME280;22283;42.748;12.732;2022-09-28T11:47:57;96893.91;;;21.96;55.92
36242;BME280;22283;42.748;12.732;2022-09-28T11:58:38;96879.22;;;22.37;54.24
36242;BME280;22283;42.748;12.732;2022-09-28T12:03:45;96883.84;;;22.62;53.96
36242;BME280;22283;42.748;12.732;2022-09-28T12:08:54;96873.59;;;22.45;53.58
36242;BME280;22283;42.748;12.732;2022-09-28T12:14:23;96868.94;;;22.21;53.33
36242;BME280;22283;42.748;12.732;2022-09-28T12:19:31;96858.44;;;22.44;51.78
36242;BME280;22283;42.748;12.732;2022-09-28T12:24:38;96842.38;;;22.31;52.32
36242;BME280;22283;42.748;12.732;2022-09-28T12:29:54;96840.06;;;21.96;54.04
36242;BME280;22283;42.748;12.732;2022-09-28T12:34:57;96838.13;;;21.72;54.68
36242;BME280;22283;42.748;12.732;2022-09-28T12:51:16;96813.44;;;22.45;50.96
36242;BME280;22283;42.748;12.732;2022-09-28T13:01:53;96802.94;;;22.37;52.87
36242;BME280;22283;42.748;12.732;2022-09-28T13:23:24;96808.03;;;22.20;51.99
36242;BME280;22283;42.748;12.732;2022-09-28T13:28:27;96815.84;;;22.28;53.96
36242;BME280;22283;42.748;12.732;2022-09-28T13:33:31;96813.41;;;22.26;53.50
36242;BME280;22283;42.748;12.732;2022-09-28T13:38:54;96809.09;;;22.19;52.94
36242;BME280;22283;42.748;12.732;2022-09-28T13:44:15;96819.28;;;22.10;53.47
36242;BME280;22283;42.748;12.732;2022-09-28T13:49:25;96810.56;;;22.15;52.78
36242;BME280;22283;42.748;12.732;2022-09-28T14:20:33;96829.16;;;21.20;54.84
36242;BME280;22283;42.748;12.732;2022-09-28T14:25:43;96808.56;;;20.87;55.76
36242;BME280;22283;42.748;12.732;2022-09-28T14:30:47;96818.91;;;20.70;56.37
36242;BME280;22283;42.748;12.732;2022-09-28T14:36:00;96811.69;;;20.64;57.21
36242;BME280;22283;42.748;12.732;2022-09-28T14:41:24;96805.69;;;20.69;57.33
36242;BME280;22283;42.748;12.732;2022-09-28T14:46:30;96805.25;;;20.85;56.84
36242;BME280;22283;42.748;12.732;2022-09-28T15:01:43;96801.75;;;20.65;57.53
36242;BME280;22283;42.748;12.732;2022-09-28T15:06:50;96813.53;;;20.50;58.67
36242;BME280;22283;42.748;12.732;2022-09-28T15:11:51;96811.44;;;20.39;59.68
36242;BME280;22283;42.748;12.732;2022-09-28T15:16:56;96807.69;;;20.27;61.31
36242;BME280;22283;42.748;12.732;2022-09-28T15:21:58;96816.38;;;20.16;61.94
36242;BME280;22283;42.748;12.732;2022-09-28T15:26:59;96797.97;;;19.99;63.13
36242;BME280;22283;42.748;12.732;2022-09-28T15:32:00;96786.81;;;19.89;64.67
36242;BME280;22283;42.748;12.732;2022-09-28T15:37:01;96793.19;;;19.81;65.14
36242;BME280;22283;42.748;12.732;2022-09-28T15:42:08;96795.84;;;19.75;65.10
36242;BME280;22283;42.748;12.732;2022-09-28T15:47:12;96792.91;;;19.63;66.81
36242;BME280;22283;42.748;12.732;2022-09-28T15:52:42;96787.72;;;19.55;68.11
36242;BME280;22283;42.748;12.732;2022-09-28T15:57:43;96788.91;;;19.46;67.92
36242;BME280;22283;42.748;12.732;2022-09-28T16:03:18;96774.88;;;19.37;67.17
36242;BME280;22283;42.748;12.732;2022-09-28T16:08:46;96788.63;;;19.27;68.13
36242;BME280;22283;42.748;12.732;2022-09-28T16:18:57;96776.78;;;19.08;69.90
36242;BME280;22283;42.748;12.732;2022-09-28T16:23:58;96761.94;;;19.06;69.86
36242;BME280;22283;42.748;12.732;2022-09-28T16:28:59;96771.41;;;19.08;69.69
36242;BME280;22283;42.748;12.732;2022-09-28T16:39:05;96762.06;;;18.91;70.45
36242;BME280;22283;42.748;12.732;2022-09-28T16:44:13;96755.22;;;18.82;70.83
36242;BME280;22283;42.748;12.732;2022-09-28T16:49:15;96760.91;;;18.72;71.14
36242;BME280;22283;42.748;12.732;2022-09-28T16:54:20;96756.19;;;18.46;72.30
36242;BME280;22283;42.748;12.732;2022-09-28T16:59:39;96772.94;;;18.27;74.03
36242;BME280;22283;42.748;12.732;2022-09-28T17:04:40;96771.28;;;18.04;75.52
36242;BME280;22283;42.748;12.732;2022-09-28T17:09:41;96762.13;;;17.92;76.87
36242;BME280;22283;42.748;12.732;2022-09-28T17:14:41;96753.59;;;17.82;77.46
36242;BME280;22283;42.748;12.732;2022-09-28T17:19:42;96769.09;;;17.72;78.61
36242;BME280;22283;42.748;12.732;2022-09-28T17:24:43;96768.31;;;17.56;79.66
36242;BME280;22283;42.748;12.732;2022-09-28T17:29:45;96777.47;;;17.47;80.91
36242;BME280;22283;42.748;12.732;2022-09-28T17:34:45;96771.38;;;17.53;81.18
36242;BME280;22283;42.748;12.732;2022-09-28T17:39:46;96765.97;;;17.47;82.53
36242;BME280;22283;42.748;12.732;2022-09-28T17:44:47;96777.53;;;17.54;82.31
36242;BME280;22283;42.748;12.732;2022-09-28T17:49:47;96772.75;;;17.49;82.43
36242;BME280;22283;42.748;12.732;2022-09-28T17:54:49;96772.63;;;17.57;82.00
36242;BME280;22283;42.748;12.732;2022-09-28T17:59:50;96761.56;;;17.60;81.70
36242;BME280;22283;42.748;12.732;2022-09-28T18:04:51;96770.41;;;17.61;80.99
36242;BME280;22283;42.748;12.732;2022-09-28T18:09:52;96774.31;;;17.58;81.58
36242;BME280;22283;42.748;12.732;2022-09-28T18:14:56;96785.84;;;17.59;81.37
36242;BME280;22283;42.748;12.732;2022-09-28T18:19:56;96789.47;;;17.51;81.34
36242;BME280;22283;42.748;12.732;2022-09-28T18:24:57;96784.38;;;17.41;81.94
36242;BME280;22283;42.748;12.732;2022-09-28T18:29:58;96776.78;;;17.24;82.53
36242;BME280;22283;42.748;12.732;2022-09-28T18:34:58;96793.84;;;17.08;83.24
36242;BME280;22283;42.748;12.732;2022-09-28T18:39:59;96786.00;;;17.06;82.53
36242;BME280;22283;42.748;12.732;2022-09-28T18:45:02;96788.31;;;16.94;82.24
36242;BME280;22283;42.748;12.732;2022-09-28T18:50:02;96781.97;;;16.95;82.91
36242;BME280;22283;42.748;12.732;2022-09-28T18:55:05;96783.38;;;16.91;82.93
36242;BME280;22283;42.748;12.732;2022-09-28T19:00:08;96798.28;;;16.86;83.00
36242;BME280;22283;42.748;12.732;2022-09-28T19:05:10;96802.69;;;16.79;83.37
36242;BME280;22283;42.748;12.732;2022-09-28T19:10:10;96807.19;;;16.78;82.97
36242;BME280;22283;42.748;12.732;2022-09-28T19:15:11;96802.41;;;16.74;82.97
36242;BME280;22283;42.748;12.732;2022-09-28T19:20:12;96820.13;;;16.66;83.61
36242;BME280;22283;42.748;12.732;2022-09-28T19:25:13;96836.81;;;16.68;83.05
36242;BME280;22283;42.748;12.732;2022-09-28T19:30:15;96835.19;;;16.67;83.35
36242;BME280;22283;42.748;12.732;2022-09-28T19:35:16;96837.72;;;16.61;83.62
36242;BME280;22283;42.748;12.732;2022-09-28T19:40:16;96828.91;;;16.60;83.40
36242;BME280;22283;42.748;12.732;2022-09-28T19:45:17;96840.13;;;16.70;82.76
36242;BME280;22283;42.748;12.732;2022-09-28T19:50:18;96825.78;;;16.71;82.46
36242;BME280;22283;42.748;12.732;2022-09-28T19:55:18;96823.78;;;16.74;82.25
36242;BME280;22283;42.748;12.732;2022-09-28T20:00:20;96849.66;;;16.73;82.92
36242;BME280;22283;42.748;12.732;2022-09-28T20:05:21;96846.22;;;16.64;83.79
36242;BME280;22283;42.748;12.732;2022-09-28T20:10:22;96846.91;;;16.58;84.94
36242;BME280;22283;42.748;12.732;2022-09-28T20:15:23;96870.75;;;16.45;86.25
36242;BME280;22283;42.748;12.732;2022-09-28T20:20:24;96877.56;;;16.47;86.77
36242;BME280;22283;42.748;12.732;2022-09-28T20:25:28;96871.03;;;16.50;86.85
36242;BME280;22283;42.748;12.732;2022-09-28T20:30:29;96873.59;;;16.43;87.85
36242;BME280;22283;42.748;12.732;2022-09-28T20:35:30;96878.06;;;16.51;88.24
36242;BME280;22283;42.748;12.732;2022-09-28T20:40:34;96871.84;;;16.51;88.97
36242;BME280;22283;42.748;12.732;2022-09-28T20:45:35;96877.56;;;16.47;89.30
36242;BME280;22283;42.748;12.732;2022-09-28T20:50:38;96870.47;;;16.40;90.07
36242;BME280;22283;42.748;12.732;2022-09-28T20:55:40;96884.97;;;16.37;90.74
36242;BME280;22283;42.748;12.732;2022-09-28T21:00:41;96879.84;;;16.36;91.50
36242;BME280;22283;42.748;12.732;2022-09-28T21:05:42;96884.34;;;16.35;92.09
36242;BME280;22283;42.748;12.732;2022-09-28T21:10:43;96878.47;;;16.40;92.38
36242;BME280;22283;42.748;12.732;2022-09-28T21:15:44;96865.75;;;16.42;92.38
36242;BME280;22283;42.748;12.732;2022-09-28T21:20:49;96860.78;;;16.39;92.95
36242;BME280;22283;42.748;12.732;2022-09-28T21:25:59;96858.84;;;16.33;93.16
36242;BME280;22283;42.748;12.732;2022-09-28T21:31:02;96871.63;;;16.37;93.89
36242;BME280;22283;42.748;12.732;2022-09-28T21:36:06;96884.78;;;16.39;94.12
36242;BME280;22283;42.748;12.732;2022-09-28T21:41:07;96872.03;;;16.49;94.02
36242;BME280;22283;42.748;12.732;2022-09-28T21:46:09;96863.00;;;16.50;94.42
36242;BME280;22283;42.748;12.732;2022-09-28T21:51:12;96852.47;;;16.57;94.18
36242;BME280;22283;42.748;12.732;2022-09-28T21:56:13;96847.41;;;16.62;94.28
36242;BME280;22283;42.748;12.732;2022-09-28T22:01:16;96867.75;;;16.63;94.49
36242;BME280;22283;42.748;12.732;2022-09-28T22:06:20;96853.56;;;16.62;94.74
36242;BME280;22283;42.748;12.732;2022-09-28T22:11:29;96861.75;;;16.61;95.54
36242;BME280;22283;42.748;12.732;2022-09-28T22:16:30;96860.94;;;16.60;95.33
36242;BME280;22283;42.748;12.732;2022-09-28T22:21:32;96866.84;;;16.70;95.13
36242;BME280;22283;42.748;12.732;2022-09-28T22:26:35;96859.16;;;16.76;94.61
36242;BME280;22283;42.748;12.732;2022-09-28T22:31:38;96858.16;;;16.77;94.31
36242;BME280;22283;42.748;12.732;2022-09-28T22:36:39;96845.84;;;16.67;94.91
36242;BME280;22283;42.748;12.732;2022-09-28T22:41:39;96851.09;;;16.61;95.76
36242;BME280;22283;42.748;12.732;2022-09-28T22:46:41;96856.44;;;16.61;96.17
36242;BME280;22283;42.748;12.732;2022-09-28T22:51:41;96860.66;;;16.55;96.76
36242;BME280;22283;42.748;12.732;2022-09-28T22:56:42;96861.66;;;16.54;97.11
36242;BME280;22283;42.748;12.732;2022-09-28T23:01:43;96855.47;;;16.54;97.12
36242;BME280;22283;42.748;12.732;2022-09-28T23:06:44;96866.03;;;16.47;97.64
36242;BME280;22283;42.748;12.732;2022-09-28T23:11:45;96843.56;;;16.41;98.27
36242;BME280;22283;42.748;12.732;2022-09-28T23:16:45;96845.06;;;16.44;98.25
36242;BME280;22283;42.748;12.732;2022-09-28T23:21:46;96860.78;;;16.39;98.56
36242;BME280;22283;42.748;12.732;2022-09-28T23:26:47;96853.16;;;16.36;98.54
36242;BME280;22283;42.748;12.732;2022-09-28T23:31:47;96858.47;;;16.36;98.49
36242;BME280;22283;42.748;12.732;2022-09-28T23:36:50;96857.53;;;16.52;97.68
36242;BME280;22283;42.748;12.732;2022-09-28T23:41:52;96852.25;;;16.58;96.88
36242;BME280;22283;42.748;12.732;2022-09-28T23:46:53;96850.63;;;16.57;96.83
36242;BME280;22283;42.748;12.732;2022-09-28T23:51:54;96854.31;;;16.56;96.67
36242;BME280;22283;42.748;12.732;2022-09-28T23:56:55;96858.00;;;16.55;97.01
